sensor_id;sensor_type;location;lat;lon;timestamp;temperature;humidity
20045;DHT22;10183;47.808;9.476;2023-03-21T00:01:20;5.70;99.90
20045;DHT22;10183;47.808;9.476;2023-03-21T00:03:47;5.70;99.90
20045;DHT22;10183;47.808;9.476;2023-03-21T00:06:14;5.60;99.90
20045;DHT22;10183;47.808;9.476;2023-03-21T00:08:40;5.60;99.90
20045;DHT22;10183;47.808;9.476;2023-03-21T00:11:08;5.60;99.90
20045;DHT22;10183;47.808;9.476;2023-03-21T00:13:35;5.70;99.90
20045;DHT22;10183;47.808;9.476;2023-03-21T00:16:11;5.90;99.90
20045;DHT22;10183;47.808;9.476;2023-03-21T00:18:42;5.90;99.90
20045;DHT22;10183;47.808;9.476;2023-03-21T00:21:16;6.00;99.90
20045;DHT22;10183;47.808;9.476;2023-03-21T00:23:43;6.10;99.90
20045;DHT22;10183;47.808;9.476;2023-03-21T00:26:11;6.10;99.90
20045;DHT22;10183;47.808;9.476;2023-03-21T00:28:40;6.00;99.90
20045;DHT22;10183;47.808;9.476;2023-03-21T00:31:07;6.10;99.90
20045;DHT22;10183;47.808;9.476;2023-03-21T00:33:34;6.10;99.90
20045;DHT22;10183;47.808;9.476;2023-03-21T00:36:02;6.10;99.90
20045;DHT22;10183;47.808;9.476;2023-03-21T00:38:28;5.90;99.90
20045;DHT22;10183;47.808;9.476;2023-03-21T00:40:54;5.90;99.90
20045;DHT22;10183;47.808;9.476;2023-03-21T00:43:20;5.90;99.90
20045;DHT22;10183;47.808;9.476;2023-03-21T00:45:56;5.90;99.90
20045;DHT22;10183;47.808;9.476;2023-03-21T00:48:23;6.00;99.90
20045;DHT22;10183;47.808;9.476;2023-03-21T00:50:51;6.00;99.90
20045;DHT22;10183;47.808;9.476;2023-03-21T00:53:19;5.90;99.90
20045;DHT22;10183;47.808;9.476;2023-03-21T00:55:45;6.10;99.90
20045;DHT22;10183;47.808;9.476;2023-03-21T00:58:12;6.30;99.90
20045;DHT22;10183;47.808;9.476;2023-03-21T01:00:38;6.30;99.90
20045;DHT22;10183;47.808;9.476;2023-03-21T01:03:10;6.20;99.90
20045;DHT22;10183;47.808;9.476;2023-03-21T01:05:40;6.30;99.90
20045;DHT22;10183;47.808;9.476;2023-03-21T01:08:26;6.30;99.90
20045;DHT22;10183;47.808;9.476;2023-03-21T01:10:55;6.20;99.90
20045;DHT22;10183;47.808;9.476;2023-03-21T01:13:23;6.10;99.90
20045;DHT22;10183;47.808;9.476;2023-03-21T01:15:53;6.10;99.90
20045;DHT22;10183;47.808;9.476;2023-03-21T01:18:22;6.20;99.90
20045;DHT22;10183;47.808;9.476;2023-03-21T01:20:50;6.20;99.90
20045;DHT22;10183;47.808;9.476;2023-03-21T01:23:17;6.20;99.90
20045;DHT22;10183;47.808;9.476;2023-03-21T01:25:43;6.30;99.90
20045;DHT22;10183;47.808;9.476;2023-03-21T01:28:09;6.40;99.90
20045;DHT22;10183;47.808;9.476;2023-03-21T01:30:35;6.40;99.90
20045;DHT22;10183;47.808;9.476;2023-03-21T01:33:02;6.20;99.90
20045;DHT22;10183;47.808;9.476;2023-03-21T01:35:28;6.20;99.90
20045;DHT22;10183;47.808;9.476;2023-03-21T01:37:54;6.10;99.90
20045;DHT22;10183;47.808;9.476;2023-03-21T01:40:25;6.10;99.90
20045;DHT22;10183;47.808;9.476;2023-03-21T01:42:51;6.10;99.90
20045;DHT22;10183;47.808;9.476;2023-03-21T01:48:21;6.00;99.90
20045;DHT22;10183;47.808;9.476;2023-03-21T01:50:48;6.00;99.90
20045;DHT22;10183;47.808;9.476;2023-03-21T01:53:19;6.00;99.90
20045;DHT22;10183;47.808;9.476;2023-03-21T01:55:47;6.00;99.90
20045;DHT22;10183;47.808;9.476;2023-03-21T01:58:16;6.00;99.90
20045;DHT22;10183;47.808;9.476;2023-03-21T02:00:44;6.00;99.90
20045;DHT22;10183;47.808;9.476;2023-03-21T02:03:11;6.00;99.90
20045;DHT22;10183;47.808;9.476;2023-03-21T02:06:00;6.00;99.90
20045;DHT22;10183;47.808;9.476;2023-03-21T02:08:31;6.00;99.90
20045;DHT22;10183;47.808;9.476;2023-03-21T02:10:58;6.00;99.90
20045;DHT22;10183;47.808;9.476;2023-03-21T02:13:25;5.90;99.90
20045;DHT22;10183;47.808;9.476;2023-03-21T02:27:19;6.00;99.90
20045;DHT22;10183;47.808;9.476;2023-03-21T02:37:48;6.00;99.90
20045;DHT22;10183;47.808;9.476;2023-03-21T02:40:24;6.20;99.90
20045;DHT22;10183;47.808;9.476;2023-03-21T02:45:44;6.30;99.90
20045;DHT22;10183;47.808;9.476;2023-03-21T02:50:59;6.30;99.90
20045;DHT22;10183;47.808;9.476;2023-03-21T02:53:32;6.10;99.90
20045;DHT22;10183;47.808;9.476;2023-03-21T02:55:59;5.90;99.90
20045;DHT22;10183;47.808;9.476;2023-03-21T02:58:27;5.70;99.90
20045;DHT22;10183;47.808;9.476;2023-03-21T03:00:55;5.70;99.90
20045;DHT22;10183;47.808;9.476;2023-03-21T03:03:22;5.80;99.90
20045;DHT22;10183;47.808;9.476;2023-03-21T03:05:51;5.90;99.90
20045;DHT22;10183;47.808;9.476;2023-03-21T03:08:37;6.00;99.90
20045;DHT22;10183;47.808;9.476;2023-03-21T03:16:23;5.70;99.90
20045;DHT22;10183;47.808;9.476;2023-03-21T03:18:58;5.70;99.90
20045;DHT22;10183;47.808;9.476;2023-03-21T03:21:41;5.80;99.90
20045;DHT22;10183;47.808;9.476;2023-03-21T03:24:32;5.90;99.90
20045;DHT22;10183;47.808;9.476;2023-03-21T03:27:09;6.00;99.90
20045;DHT22;10183;47.808;9.476;2023-03-21T03:29:39;6.00;99.90
20045;DHT22;10183;47.808;9.476;2023-03-21T03:32:28;6.00;99.90
20045;DHT22;10183;47.808;9.476;2023-03-21T03:34:57;6.00;99.90
20045;DHT22;10183;47.808;9.476;2023-03-21T03:37:27;5.80;99.90
20045;DHT22;10183;47.808;9.476;2023-03-21T03:42:40;5.50;99.90
20045;DHT22;10183;47.808;9.476;2023-03-21T03:45:09;5.50;99.90
20045;DHT22;10183;47.808;9.476;2023-03-21T03:54:06;5.60;99.90
20045;DHT22;10183;47.808;9.476;2023-03-21T03:56:03;5.50;99.90
20045;DHT22;10183;47.808;9.476;2023-03-21T03:58:31;5.50;99.90
20045;DHT22;10183;47.808;9.476;2023-03-21T04:01:00;5.50;99.90
20045;DHT22;10183;47.808;9.476;2023-03-21T04:03:26;5.40;99.90
20045;DHT22;10183;47.808;9.476;2023-03-21T04:05:52;5.40;99.90
20045;DHT22;10183;47.808;9.476;2023-03-21T04:08:19;5.40;99.90
20045;DHT22;10183;47.808;9.476;2023-03-21T04:10:48;5.50;99.90
20045;DHT22;10183;47.808;9.476;2023-03-21T04:13:14;5.50;99.90
20045;DHT22;10183;47.808;9.476;2023-03-21T04:15:40;5.40;99.90
20045;DHT22;10183;47.808;9.476;2023-03-21T04:18:08;5.40;99.90
20045;DHT22;10183;47.808;9.476;2023-03-21T04:20:34;5.40;99.90
20045;DHT22;10183;47.808;9.476;2023-03-21T04:23:00;5.40;99.90
20045;DHT22;10183;47.808;9.476;2023-03-21T04:25:26;5.40;99.90
20045;DHT22;10183;47.808;9.476;2023-03-21T04:27:54;5.30;99.90
20045;DHT22;10183;47.808;9.476;2023-03-21T04:30:20;5.30;99.90
20045;DHT22;10183;47.808;9.476;2023-03-21T04:32:50;5.30;99.90
20045;DHT22;10183;47.808;9.476;2023-03-21T04:35:19;5.30;99.90
20045;DHT22;10183;47.808;9.476;2023-03-21T04:37:45;5.30;99.90
20045;DHT22;10183;47.808;9.476;2023-03-21T04:40:12;5.20;99.90
20045;DHT22;10183;47.808;9.476;2023-03-21T04:42:43;5.20;99.90
20045;DHT22;10183;47.808;9.476;2023-03-21T04:45:09;5.20;99.90
20045;DHT22;10183;47.808;9.476;2023-03-21T04:47:36;5.20;99.90
20045;DHT22;10183;47.808;9.476;2023-03-21T04:50:02;5.20;99.90
20045;DHT22;10183;47.808;9.476;2023-03-21T04:52:29;5.30;99.90
20045;DHT22;10183;47.808;9.476;2023-03-21T04:54:55;5.30;99.90
20045;DHT22;10183;47.808;9.476;2023-03-21T04:57:21;5.40;99.90
20045;DHT22;10183;47.808;9.476;2023-03-21T04:59:47;5.50;99.90
20045;DHT22;10183;47.808;9.476;2023-03-21T05:02:13;5.50;99.90
20045;DHT22;10183;47.808;9.476;2023-03-21T05:04:40;5.40;99.90
20045;DHT22;10183;47.808;9.476;2023-03-21T05:07:06;5.30;99.90
20045;DHT22;10183;47.808;9.476;2023-03-21T05:09:33;5.20;99.90
20045;DHT22;10183;47.808;9.476;2023-03-21T05:11:59;5.10;99.90
20045;DHT22;10183;47.808;9.476;2023-03-21T05:14:26;5.10;99.90
20045;DHT22;10183;47.808;9.476;2023-03-21T05:16:52;5.10;99.90
20045;DHT22;10183;47.808;9.476;2023-03-21T05:19:23;5.10;99.90
20045;DHT22;10183;47.808;9.476;2023-03-21T05:21:50;5.20;99.90
20045;DHT22;10183;47.808;9.476;2023-03-21T05:24:19;5.30;99.90
20045;DHT22;10183;47.808;9.476;2023-03-21T05:26:46;5.40;99.90
20045;DHT22;10183;47.808;9.476;2023-03-21T05:29:16;5.40;99.90
20045;DHT22;10183;47.808;9.476;2023-03-21T05:31:44;5.50;99.90
20045;DHT22;10183;47.808;9.476;2023-03-21T05:34:13;5.50;99.90
20045;DHT22;10183;47.808;9.476;2023-03-21T05:36:41;5.40;99.90
20045;DHT22;10183;47.808;9.476;2023-03-21T05:39:07;5.30;99.90
20045;DHT22;10183;47.808;9.476;2023-03-21T05:41:33;5.30;99.90
20045;DHT22;10183;47.808;9.476;2023-03-21T05:43:59;5.30;99.90
20045;DHT22;10183;47.808;9.476;2023-03-21T05:46:26;5.40;99.90
20045;DHT22;10183;47.808;9.476;2023-03-21T05:48:52;5.30;99.90
20045;DHT22;10183;47.808;9.476;2023-03-21T05:51:18;5.30;99.90
20045;DHT22;10183;47.808;9.476;2023-03-21T05:53:44;5.40;99.90
20045;DHT22;10183;47.808;9.476;2023-03-21T05:56:10;5.40;99.90
20045;DHT22;10183;47.808;9.476;2023-03-21T05:58:36;5.40;99.90
20045;DHT22;10183;47.808;9.476;2023-03-21T06:01:03;5.50;99.90
20045;DHT22;10183;47.808;9.476;2023-03-21T06:03:29;5.60;99.90
20045;DHT22;10183;47.808;9.476;2023-03-21T06:05:55;5.70;99.90
20045;DHT22;10183;47.808;9.476;2023-03-21T06:08:21;5.70;99.90
20045;DHT22;10183;47.808;9.476;2023-03-21T06:10:48;5.70;99.90
20045;DHT22;10183;47.808;9.476;2023-03-21T06:13:14;5.70;99.90
20045;DHT22;10183;47.808;9.476;2023-03-21T06:15:40;5.90;99.90
20045;DHT22;10183;47.808;9.476;2023-03-21T06:18:07;5.90;99.90
20045;DHT22;10183;47.808;9.476;2023-03-21T06:20:33;5.90;99.90
20045;DHT22;10183;47.808;9.476;2023-03-21T06:22:59;6.00;99.90
20045;DHT22;10183;47.808;9.476;2023-03-21T06:25:25;6.00;99.90
20045;DHT22;10183;47.808;9.476;2023-03-21T06:27:51;5.90;99.90
20045;DHT22;10183;47.808;9.476;2023-03-21T06:30:17;6.00;99.90
20045;DHT22;10183;47.808;9.476;2023-03-21T06:32:44;6.00;99.90
20045;DHT22;10183;47.808;9.476;2023-03-21T06:35:10;6.10;99.90
20045;DHT22;10183;47.808;9.476;2023-03-21T06:37:36;6.20;99.90
20045;DHT22;10183;47.808;9.476;2023-03-21T06:40:03;6.40;99.90
20045;DHT22;10183;47.808;9.476;2023-03-21T06:42:30;6.60;99.90
20045;DHT22;10183;47.808;9.476;2023-03-21T06:44:57;6.60;99.90
20045;DHT22;10183;47.808;9.476;2023-03-21T06:47:23;6.60;99.90
20045;DHT22;10183;47.808;9.476;2023-03-21T06:49:50;6.70;99.90
20045;DHT22;10183;47.808;9.476;2023-03-21T06:52:16;6.90;99.90
20045;DHT22;10183;47.808;9.476;2023-03-21T06:54:42;7.10;99.90
20045;DHT22;10183;47.808;9.476;2023-03-21T06:57:09;7.30;99.90
20045;DHT22;10183;47.808;9.476;2023-03-21T06:59:35;7.30;99.90
20045;DHT22;10183;47.808;9.476;2023-03-21T07:02:01;7.40;99.90
20045;DHT22;10183;47.808;9.476;2023-03-21T07:04:27;7.50;99.90
20045;DHT22;10183;47.808;9.476;2023-03-21T07:06:54;7.60;99.90
20045;DHT22;10183;47.808;9.476;2023-03-21T07:09:20;7.60;99.90
20045;DHT22;10183;47.808;9.476;2023-03-21T07:11:49;7.70;99.90
20045;DHT22;10183;47.808;9.476;2023-03-21T07:14:18;7.70;99.90
20045;DHT22;10183;47.808;9.476;2023-03-21T07:16:45;7.80;99.90
20045;DHT22;10183;47.808;9.476;2023-03-21T07:19:11;7.80;99.90
20045;DHT22;10183;47.808;9.476;2023-03-21T07:21:37;7.70;99.90
20045;DHT22;10183;47.808;9.476;2023-03-21T07:24:03;7.80;99.90
20045;DHT22;10183;47.808;9.476;2023-03-21T07:26:30;7.80;99.90
20045;DHT22;10183;47.808;9.476;2023-03-21T07:28:56;7.80;99.90
20045;DHT22;10183;47.808;9.476;2023-03-21T07:31:22;7.80;99.90
20045;DHT22;10183;47.808;9.476;2023-03-21T07:33:51;7.70;99.90
20045;DHT22;10183;47.808;9.476;2023-03-21T07:36:17;7.80;99.90
20045;DHT22;10183;47.808;9.476;2023-03-21T07:38:44;7.90;99.90
20045;DHT22;10183;47.808;9.476;2023-03-21T07:41:12;8.00;99.90
20045;DHT22;10183;47.808;9.476;2023-03-21T07:43:38;8.00;99.90
20045;DHT22;10183;47.808;9.476;2023-03-21T07:46:04;8.00;99.90
20045;DHT22;10183;47.808;9.476;2023-03-21T07:48:31;8.10;99.90
20045;DHT22;10183;47.808;9.476;2023-03-21T07:50:57;8.10;99.90
20045;DHT22;10183;47.808;9.476;2023-03-21T07:53:23;8.20;99.90
20045;DHT22;10183;47.808;9.476;2023-03-21T07:55:53;8.50;99.90
20045;DHT22;10183;47.808;9.476;2023-03-21T07:58:24;8.70;99.90
20045;DHT22;10183;47.808;9.476;2023-03-21T08:00:51;9.00;99.90
20045;DHT22;10183;47.808;9.476;2023-03-21T08:03:18;9.30;99.90
20045;DHT22;10183;47.808;9.476;2023-03-21T08:05:44;9.50;99.90
20045;DHT22;10183;47.808;9.476;2023-03-21T08:08:11;9.70;99.90
20045;DHT22;10183;47.808;9.476;2023-03-21T08:10:37;9.70;99.90
20045;DHT22;10183;47.808;9.476;2023-03-21T08:13:04;9.80;99.90
20045;DHT22;10183;47.808;9.476;2023-03-21T08:15:30;10.10;99.90
20045;DHT22;10183;47.808;9.476;2023-03-21T08:17:58;10.40;99.90
20045;DHT22;10183;47.808;9.476;2023-03-21T08:20:24;10.60;99.90
20045;DHT22;10183;47.808;9.476;2023-03-21T08:22:51;10.90;99.90
20045;DHT22;10183;47.808;9.476;2023-03-21T08:25:18;10.90;99.90
20045;DHT22;10183;47.808;9.476;2023-03-21T08:27:46;10.90;99.90
20045;DHT22;10183;47.808;9.476;2023-03-21T08:30:16;11.20;99.90
20045;DHT22;10183;47.808;9.476;2023-03-21T08:32:42;11.30;99.90
20045;DHT22;10183;47.808;9.476;2023-03-21T08:35:11;11.20;99.90
20045;DHT22;10183;47.808;9.476;2023-03-21T08:37:38;11.40;99.90
20045;DHT22;10183;47.808;9.476;2023-03-21T08:40:06;11.60;99.90
20045;DHT22;10183;47.808;9.476;2023-03-21T08:42:39;11.80;99.90
20045;DHT22;10183;47.808;9.476;2023-03-21T08:45:07;11.70;99.90
20045;DHT22;10183;47.808;9.476;2023-03-21T08:47:33;11.70;99.90
20045;DHT22;10183;47.808;9.476;2023-03-21T08:49:59;11.90;99.90
20045;DHT22;10183;47.808;9.476;2023-03-21T08:52:25;12.40;99.90
20045;DHT22;10183;47.808;9.476;2023-03-21T08:54:53;12.20;99.90
20045;DHT22;10183;47.808;9.476;2023-03-21T08:57:19;12.30;99.90
20045;DHT22;10183;47.808;9.476;2023-03-21T08:59:46;12.20;99.90
20045;DHT22;10183;47.808;9.476;2023-03-21T09:02:14;12.40;99.90
20045;DHT22;10183;47.808;9.476;2023-03-21T09:04:41;12.60;99.90
20045;DHT22;10183;47.808;9.476;2023-03-21T09:07:10;12.40;99.90
20045;DHT22;10183;47.808;9.476;2023-03-21T09:09:39;12.50;99.90
20045;DHT22;10183;47.808;9.476;2023-03-21T09:12:06;12.40;99.90
20045;DHT22;10183;47.808;9.476;2023-03-21T09:14:32;12.30;99.90
20045;DHT22;10183;47.808;9.476;2023-03-21T09:17:00;12.30;99.90
20045;DHT22;10183;47.808;9.476;2023-03-21T09:19:26;12.40;99.90
20045;DHT22;10183;47.808;9.476;2023-03-21T09:21:53;12.70;99.90
20045;DHT22;10183;47.808;9.476;2023-03-21T09:24:20;13.00;99.90
20045;DHT22;10183;47.808;9.476;2023-03-21T09:26:46;13.00;99.90
20045;DHT22;10183;47.808;9.476;2023-03-21T09:29:17;12.80;99.90
20045;DHT22;10183;47.808;9.476;2023-03-21T09:31:44;12.90;99.90
20045;DHT22;10183;47.808;9.476;2023-03-21T09:34:12;12.70;99.90
20045;DHT22;10183;47.808;9.476;2023-03-21T09:36:40;12.60;99.90
20045;DHT22;10183;47.808;9.476;2023-03-21T09:39:09;12.60;99.90
20045;DHT22;10183;47.808;9.476;2023-03-21T09:47:26;13.10;99.90
20045;DHT22;10183;47.808;9.476;2023-03-21T09:50:04;13.40;99.90
20045;DHT22;10183;47.808;9.476;2023-03-21T09:52:55;13.70;99.90
20045;DHT22;10183;47.808;9.476;2023-03-21T09:55:27;13.10;99.90
20045;DHT22;10183;47.808;9.476;2023-03-21T09:58:06;13.10;99.90
20045;DHT22;10183;47.808;9.476;2023-03-21T10:00:38;12.80;99.90
20045;DHT22;10183;47.808;9.476;2023-03-21T10:03:21;12.90;99.90
20045;DHT22;10183;47.808;9.476;2023-03-21T10:05:53;12.60;99.90
20045;DHT22;10183;47.808;9.476;2023-03-21T10:08:32;12.50;99.90
20045;DHT22;10183;47.808;9.476;2023-03-21T10:11:12;12.50;99.90
20045;DHT22;10183;47.808;9.476;2023-03-21T10:13:45;12.10;99.90
20045;DHT22;10183;47.808;9.476;2023-03-21T10:16:16;12.30;99.90
20045;DHT22;10183;47.808;9.476;2023-03-21T10:18:44;12.70;99.90
20045;DHT22;10183;47.808;9.476;2023-03-21T10:21:18;12.90;99.90
20045;DHT22;10183;47.808;9.476;2023-03-21T10:23:45;12.50;99.90
20045;DHT22;10183;47.808;9.476;2023-03-21T10:26:11;12.20;99.90
20045;DHT22;10183;47.808;9.476;2023-03-21T10:28:39;12.30;99.90
20045;DHT22;10183;47.808;9.476;2023-03-21T10:31:14;12.40;99.90
20045;DHT22;10183;47.808;9.476;2023-03-21T10:33:45;12.60;99.90
20045;DHT22;10183;47.808;9.476;2023-03-21T10:36:12;12.80;99.90
20045;DHT22;10183;47.808;9.476;2023-03-21T10:38:54;13.30;99.90
20045;DHT22;10183;47.808;9.476;2023-03-21T10:41:21;13.60;99.90
20045;DHT22;10183;47.808;9.476;2023-03-21T10:46:32;13.40;99.90
20045;DHT22;10183;47.808;9.476;2023-03-21T10:48:59;13.90;99.90
20045;DHT22;10183;47.808;9.476;2023-03-21T10:51:31;14.30;99.90
20045;DHT22;10183;47.808;9.476;2023-03-21T10:54:03;14.00;99.90
20045;DHT22;10183;47.808;9.476;2023-03-21T10:56:35;14.50;99.90
20045;DHT22;10183;47.808;9.476;2023-03-21T10:59:03;14.30;99.90
20045;DHT22;10183;47.808;9.476;2023-03-21T11:01:35;14.30;99.90
20045;DHT22;10183;47.808;9.476;2023-03-21T11:04:13;13.50;99.90
20045;DHT22;10183;47.808;9.476;2023-03-21T11:06:43;13.30;99.90
20045;DHT22;10183;47.808;9.476;2023-03-21T11:09:18;13.70;99.90
20045;DHT22;10183;47.808;9.476;2023-03-21T11:14:32;13.40;99.90
20045;DHT22;10183;47.808;9.476;2023-03-21T11:16:59;12.90;99.90
20045;DHT22;10183;47.808;9.476;2023-03-21T11:19:31;14.00;99.90
20045;DHT22;10183;47.808;9.476;2023-03-21T11:21:58;13.80;99.90
20045;DHT22;10183;47.808;9.476;2023-03-21T11:24:29;13.70;99.90
20045;DHT22;10183;47.808;9.476;2023-03-21T11:26:57;13.50;99.90
20045;DHT22;10183;47.808;9.476;2023-03-21T11:29:37;13.50;99.90
20045;DHT22;10183;47.808;9.476;2023-03-21T11:32:10;13.30;99.90
20045;DHT22;10183;47.808;9.476;2023-03-21T11:34:47;13.20;99.90
20045;DHT22;10183;47.808;9.476;2023-03-21T11:37:43;13.30;99.90
20045;DHT22;10183;47.808;9.476;2023-03-21T11:42:56;13.50;99.90
20045;DHT22;10183;47.808;9.476;2023-03-21T11:45:25;13.30;99.90
20045;DHT22;10183;47.808;9.476;2023-03-21T11:47:54;13.50;99.90
20045;DHT22;10183;47.808;9.476;2023-03-21T12:01:51;13.80;99.90
20045;DHT22;10183;47.808;9.476;2023-03-21T12:06:52;13.70;99.90
20045;DHT22;10183;47.808;9.476;2023-03-21T12:17:09;13.40;99.90
20045;DHT22;10183;47.808;9.476;2023-03-21T12:24:55;13.40;99.90
20045;DHT22;10183;47.808;9.476;2023-03-21T12:38:18;13.10;99.90
20045;DHT22;10183;47.808;9.476;2023-03-21T12:41:15;13.00;99.90
20045;DHT22;10183;47.808;9.476;2023-03-21T12:43:49;13.00;99.90
20045;DHT22;10183;47.808;9.476;2023-03-21T12:46:26;13.50;99.90
20045;DHT22;10183;47.808;9.476;2023-03-21T12:49:23;13.30;99.90
20045;DHT22;10183;47.808;9.476;2023-03-21T12:51:58;12.90;99.90
20045;DHT22;10183;47.808;9.476;2023-03-21T12:54:36;13.10;99.90
20045;DHT22;10183;47.808;9.476;2023-03-21T12:59:58;13.00;99.90
20045;DHT22;10183;47.808;9.476;2023-03-21T13:02:35;13.10;99.90
20045;DHT22;10183;47.808;9.476;2023-03-21T13:05:09;13.40;99.90
20045;DHT22;10183;47.808;9.476;2023-03-21T13:07:44;13.30;99.90
20045;DHT22;10183;47.808;9.476;2023-03-21T13:10:17;13.30;99.90
20045;DHT22;10183;47.808;9.476;2023-03-21T13:13:03;13.30;99.90
20045;DHT22;10183;47.808;9.476;2023-03-21T13:15:57;13.20;99.90
20045;DHT22;10183;47.808;9.476;2023-03-21T13:24:15;13.40;99.90
20045;DHT22;10183;47.808;9.476;2023-03-21T13:26:47;13.60;99.90
20045;DHT22;10183;47.808;9.476;2023-03-21T13:29:27;14.20;99.90
20045;DHT22;10183;47.808;9.476;2023-03-21T13:31:57;14.70;99.90
20045;DHT22;10183;47.808;9.476;2023-03-21T13:34:25;15.00;99.90
20045;DHT22;10183;47.808;9.476;2023-03-21T13:36:52;15.50;99.90
20045;DHT22;10183;47.808;9.476;2023-03-21T13:39:27;14.60;99.90
20045;DHT22;10183;47.808;9.476;2023-03-21T13:41:54;14.90;99.90
20045;DHT22;10183;47.808;9.476;2023-03-21T13:44:26;15.20;99.90
20045;DHT22;10183;47.808;9.476;2023-03-21T13:47:02;15.20;99.90
20045;DHT22;10183;47.808;9.476;2023-03-21T13:49:36;14.90;99.90
20045;DHT22;10183;47.808;9.476;2023-03-21T13:57:05;15.80;99.90
20045;DHT22;10183;47.808;9.476;2023-03-21T14:04:54;14.70;99.90
20045;DHT22;10183;47.808;9.476;2023-03-21T14:07:27;14.60;99.90
20045;DHT22;10183;47.808;9.476;2023-03-21T14:10:03;14.80;99.90
20045;DHT22;10183;47.808;9.476;2023-03-21T14:12:36;14.70;99.90
20045;DHT22;10183;47.808;9.476;2023-03-21T14:18:13;15.30;99.90
20045;DHT22;10183;47.808;9.476;2023-03-21T14:20:36;15.50;99.90
20045;DHT22;10183;47.808;9.476;2023-03-21T14:23:07;15.40;99.90
20045;DHT22;10183;47.808;9.476;2023-03-21T14:25:39;15.20;99.90
20045;DHT22;10183;47.808;9.476;2023-03-21T14:28:17;14.90;99.90
20045;DHT22;10183;47.808;9.476;2023-03-21T14:30:46;14.90;99.90
20045;DHT22;10183;47.808;9.476;2023-03-21T14:33:31;14.20;99.90
20045;DHT22;10183;47.808;9.476;2023-03-21T14:35:59;14.20;99.90
20045;DHT22;10183;47.808;9.476;2023-03-21T14:38:32;14.10;99.90
20045;DHT22;10183;47.808;9.476;2023-03-21T14:40:59;14.00;99.90
20045;DHT22;10183;47.808;9.476;2023-03-21T14:43:26;14.20;99.90
20045;DHT22;10183;47.808;9.476;2023-03-21T14:45:54;14.00;99.90
20045;DHT22;10183;47.808;9.476;2023-03-21T14:48:31;13.80;99.90
20045;DHT22;10183;47.808;9.476;2023-03-21T14:51:05;13.80;99.90
20045;DHT22;10183;47.808;9.476;2023-03-21T14:53:39;13.50;99.90
20045;DHT22;10183;47.808;9.476;2023-03-21T14:56:09;13.50;99.90
20045;DHT22;10183;47.808;9.476;2023-03-21T14:58:38;13.50;99.90
20045;DHT22;10183;47.808;9.476;2023-03-21T15:01:06;13.50;99.90
20045;DHT22;10183;47.808;9.476;2023-03-21T15:03:38;13.30;99.90
20045;DHT22;10183;47.808;9.476;2023-03-21T15:06:11;13.30;99.90
20045;DHT22;10183;47.808;9.476;2023-03-21T15:08:39;13.40;99.90
20045;DHT22;10183;47.808;9.476;2023-03-21T15:11:10;13.60;99.90
20045;DHT22;10183;47.808;9.476;2023-03-21T15:13:45;13.80;99.90
20045;DHT22;10183;47.808;9.476;2023-03-21T15:16:15;13.90;99.90
20045;DHT22;10183;47.808;9.476;2023-03-21T15:18:43;14.30;99.90
20045;DHT22;10183;47.808;9.476;2023-03-21T15:21:20;14.60;99.90
20045;DHT22;10183;47.808;9.476;2023-03-21T15:23:53;14.30;99.90
20045;DHT22;10183;47.808;9.476;2023-03-21T15:26:23;14.70;99.90
20045;DHT22;10183;47.808;9.476;2023-03-21T15:28:56;15.10;99.90
20045;DHT22;10183;47.808;9.476;2023-03-21T15:31:27;14.90;99.90
20045;DHT22;10183;47.808;9.476;2023-03-21T15:33:54;14.80;99.90
20045;DHT22;10183;47.808;9.476;2023-03-21T15:36:27;15.00;99.90
20045;DHT22;10183;47.808;9.476;2023-03-21T15:38:54;14.80;99.90
20045;DHT22;10183;47.808;9.476;2023-03-21T15:41:24;14.50;99.90
20045;DHT22;10183;47.808;9.476;2023-03-21T15:46:46;14.00;99.90
20045;DHT22;10183;47.808;9.476;2023-03-21T15:51:54;13.40;99.90
20045;DHT22;10183;47.808;9.476;2023-03-21T15:54:28;13.40;99.90
20045;DHT22;10183;47.808;9.476;2023-03-21T15:56:56;13.40;99.90
20045;DHT22;10183;47.808;9.476;2023-03-21T15:59:31;13.40;99.90
20045;DHT22;10183;47.808;9.476;2023-03-21T16:01:57;13.30;99.90
20045;DHT22;10183;47.808;9.476;2023-03-21T16:04:24;13.20;99.90
20045;DHT22;10183;47.808;9.476;2023-03-21T16:06:57;13.20;99.90
20045;DHT22;10183;47.808;9.476;2023-03-21T16:09:24;13.10;99.90
20045;DHT22;10183;47.808;9.476;2023-03-21T16:12:01;13.10;99.90
20045;DHT22;10183;47.808;9.476;2023-03-21T16:14:27;13.00;99.90
20045;DHT22;10183;47.808;9.476;2023-03-21T16:16:54;12.90;99.90
20045;DHT22;10183;47.808;9.476;2023-03-21T16:19:21;12.80;99.90
20045;DHT22;10183;47.808;9.476;2023-03-21T16:21:48;12.80;99.90
20045;DHT22;10183;47.808;9.476;2023-03-21T16:24:14;12.70;99.90
20045;DHT22;10183;47.808;9.476;2023-03-21T16:26:46;12.60;99.90
20045;DHT22;10183;47.808;9.476;2023-03-21T16:29:16;12.60;99.90
20045;DHT22;10183;47.808;9.476;2023-03-21T16:31:43;12.60;99.90
20045;DHT22;10183;47.808;9.476;2023-03-21T16:34:11;12.70;99.90
20045;DHT22;10183;47.808;9.476;2023-03-21T16:36:39;12.60;99.90
20045;DHT22;10183;47.808;9.476;2023-03-21T16:39:20;12.50;99.90
20045;DHT22;10183;47.808;9.476;2023-03-21T16:41:47;12.50;99.90
20045;DHT22;10183;47.808;9.476;2023-03-21T16:44:13;12.50;99.90
20045;DHT22;10183;47.808;9.476;2023-03-21T16:46:40;12.50;99.90
20045;DHT22;10183;47.808;9.476;2023-03-21T16:49:17;12.40;99.90
20045;DHT22;10183;47.808;9.476;2023-03-21T16:51:43;12.40;99.90
20045;DHT22;10183;47.808;9.476;2023-03-21T16:54:09;12.40;99.90
20045;DHT22;10183;47.808;9.476;2023-03-21T16:56:42;12.30;99.90
20045;DHT22;10183;47.808;9.476;2023-03-21T16:59:13;12.30;99.90
20045;DHT22;10183;47.808;9.476;2023-03-21T17:01:40;12.30;99.90
20045;DHT22;10183;47.808;9.476;2023-03-21T17:04:07;12.30;99.90
20045;DHT22;10183;47.808;9.476;2023-03-21T17:06:46;12.30;99.90
20045;DHT22;10183;47.808;9.476;2023-03-21T17:09:14;12.20;99.90
20045;DHT22;10183;47.808;9.476;2023-03-21T17:11:40;12.10;99.90
20045;DHT22;10183;47.808;9.476;2023-03-21T17:14:10;12.10;99.90
20045;DHT22;10183;47.808;9.476;2023-03-21T17:16:36;12.10;99.90
20045;DHT22;10183;47.808;9.476;2023-03-21T17:19:16;12.00;99.90
20045;DHT22;10183;47.808;9.476;2023-03-21T17:21:42;12.00;99.90
20045;DHT22;10183;47.808;9.476;2023-03-21T17:24:08;11.90;99.90
20045;DHT22;10183;47.808;9.476;2023-03-21T17:26:35;11.80;99.90
20045;DHT22;10183;47.808;9.476;2023-03-21T17:29:01;11.90;99.90
20045;DHT22;10183;47.808;9.476;2023-03-21T17:31:32;11.70;99.90
20045;DHT22;10183;47.808;9.476;2023-03-21T17:33:59;11.60;99.90
20045;DHT22;10183;47.808;9.476;2023-03-21T17:36:36;11.60;99.90
20045;DHT22;10183;47.808;9.476;2023-03-21T17:39:05;11.60;99.90
20045;DHT22;10183;47.808;9.476;2023-03-21T17:41:32;11.50;99.90
20045;DHT22;10183;47.808;9.476;2023-03-21T17:43:58;11.30;99.90
20045;DHT22;10183;47.808;9.476;2023-03-21T17:46:25;11.20;99.90
20045;DHT22;10183;47.808;9.476;2023-03-21T17:48:53;11.10;99.90
20045;DHT22;10183;47.808;9.476;2023-03-21T17:51:20;11.00;99.90
20045;DHT22;10183;47.808;9.476;2023-03-21T17:53:49;10.90;99.90